Time;durP1;ratioP1;P1;durP2;ratioP2;P2;SDS_P1;SDS_P2;PMS_P1;PMS_P2;Temp;Humidity;BMP_temperature;BMP_pressure;BME280_temperature;BME280_humidity;BME280_pressure;Samples;Min_cycle;Max_cycle;Signal;HPM_P1;HPM_P2
2021/07/21 00:01:15;;;;;;;8.48;5.60;;;20.40;99.90;;;;;;6137133;23;20124;-90
2021/07/21 00:03:41;;;;;;;8.95;6.97;;;20.40;99.90;;;;;;6140328;23;20006;-90
2021/07/21 00:06:07;;;;;;;11.70;7.72;;;20.40;99.90;;;;;;6136910;23;20001;-90
2021/07/21 00:08:33;;;;;;;11.77;9.60;;;20.40;99.90;;;;;;6133768;23;20006;-90
2021/07/21 00:13:43;;;;;;;14.70;9.20;;;20.30;99.90;;;;;;6172360;23;20066;-89
2021/07/21 00:16:14;;;;;;;10.32;8.65;;;20.20;99.90;;;;;;6148514;23;20002;-88
2021/07/21 00:18:51;;;;;;;12.02;9.07;;;20.10;99.90;;;;;;6151286;23;20017;-90
2021/07/21 00:21:21;;;;;;;10.40;8.82;;;20.00;99.90;;;;;;6174154;23;20002;-90
2021/07/21 00:23:47;;;;;;;13.90;9.55;;;20.00;99.90;;;;;;6131290;23;20006;-90
2021/07/21 00:26:12;;;;;;;13.10;10.30;;;20.00;99.90;;;;;;6131621;23;20028;-90
2021/07/21 00:28:41;;;;;;;11.60;9.57;;;19.90;99.90;;;;;;6131763;23;20028;-90
2021/07/21 00:31:15;;;;;;;12.48;9.02;;;19.90;99.90;;;;;;6131302;23;20002;-90
2021/07/21 00:33:42;;;;;;;15.45;10.73;;;19.80;99.90;;;;;;6125844;23;20022;-90
2021/07/21 00:36:08;;;;;;;10.80;9.70;;;19.80;99.90;;;;;;6151033;23;20013;-89
2021/07/21 00:38:34;;;;;;;11.48;9.15;;;19.80;99.90;;;;;;6150978;23;20010;-90
2021/07/21 00:40:59;;;;;;;15.50;9.52;;;19.80;99.90;;;;;;6126262;23;20012;-89
2021/07/21 00:43:27;;;;;;;13.90;10.80;;;19.80;99.90;;;;;;6150520;23;20030;-90
2021/07/21 00:45:53;;;;;;;10.13;8.73;;;19.80;99.90;;;;;;6151005;23;20033;-89
2021/07/21 00:48:19;;;;;;;13.13;10.65;;;19.80;99.90;;;;;;6127428;23;19998;-89
2021/07/21 00:50:45;;;;;;;13.63;10.35;;;19.80;99.90;;;;;;6150475;23;20038;-90
2021/07/21 00:53:11;;;;;;;11.77;8.85;;;19.80;99.90;;;;;;6125953;23;20002;-90
2021/07/21 00:55:37;;;;;;;12.65;9.82;;;19.80;99.90;;;;;;6150435;23;20021;-90
2021/07/21 00:58:03;;;;;;;14.05;10.57;;;19.90;99.90;;;;;;6127393;23;20009;-90
2021/07/21 01:00:29;;;;;;;13.07;9.43;;;19.90;99.90;;;;;;6151691;23;20006;-90
2021/07/21 01:02:55;;;;;;;12.23;9.63;;;19.90;99.90;;;;;;6151127;23;20029;-89
2021/07/21 01:05:32;;;;;;;11.63;10.10;;;19.80;99.90;;;;;;6150810;23;20308;-90
2021/07/21 01:07:58;;;;;;;11.50;9.50;;;19.80;99.90;;;;;;6151085;23;20002;-90
2021/07/21 01:10:25;;;;;;;11.57;9.45;;;19.90;99.90;;;;;;6167029;23;20022;-90
2021/07/21 01:13:08;;;;;;;14.18;10.07;;;19.80;99.90;;;;;;6174383;23;20001;-90
2021/07/21 01:16:00;;;;;;;10.48;9.02;;;19.80;99.90;;;;;;6166382;23;20009;-89
2021/07/21 01:18:32;;;;;;;10.85;8.43;;;19.70;99.90;;;;;;6172807;23;20010;-88
2021/07/21 01:21:10;;;;;;;12.17;9.40;;;19.80;99.90;;;;;;6127841;23;20092;-89
2021/07/21 01:23:45;;;;;;;10.65;8.07;;;19.70;99.90;;;;;;6131096;23;20013;-90
2021/07/21 01:26:13;;;;;;;10.25;7.88;;;19.80;99.90;;;;;;6153863;23;20002;-90
2021/07/21 01:28:42;;;;;;;11.15;8.20;;;19.80;99.90;;;;;;6151240;23;20430;-90
2021/07/21 01:31:09;;;;;;;11.35;8.18;;;19.80;99.90;;;;;;6151611;23;20029;-90
2021/07/21 01:33:38;;;;;;;10.80;8.80;;;19.80;99.90;;;;;;6157048;23;20068;-89
2021/07/21 01:36:28;;;;;;;10.48;7.72;;;19.80;99.90;;;;;;6132632;23;20013;-90
2021/07/21 01:39:03;;;;;;;10.02;8.15;;;19.80;99.90;;;;;;6131776;23;20005;-90
2021/07/21 01:41:34;;;;;;;11.65;8.75;;;19.90;99.90;;;;;;6132668;23;20025;-90
2021/07/21 01:44:21;;;;;;;9.48;7.20;;;19.90;99.90;;;;;;6132623;23;20489;-90
2021/07/21 01:46:53;;;;;;;8.80;6.75;;;19.90;99.90;;;;;;6132236;23;20006;-90
2021/07/21 01:49:21;;;;;;;10.18;7.70;;;19.90;99.90;;;;;;6132713;23;20105;-90
2021/07/21 01:51:48;;;;;;;11.40;8.18;;;20.00;99.90;;;;;;6132680;23;20032;-90
2021/07/21 01:54:15;;;;;;;9.30;7.38;;;20.00;99.90;;;;;;6132402;23;20216;-90
2021/07/21 01:56:41;;;;;;;8.70;6.63;;;20.00;99.90;;;;;;6132485;23;20001;-89
2021/07/21 01:59:08;;;;;;;9.25;7.38;;;20.00;99.90;;;;;;6132406;23;20025;-90
2021/07/21 02:01:36;;;;;;;9.40;6.35;;;20.00;99.90;;;;;;6132596;23;20005;-89
2021/07/21 02:04:03;;;;;;;13.20;7.05;;;20.00;99.90;;;;;;6139899;23;20040;-90
2021/07/21 02:06:32;;;;;;;9.70;7.63;;;20.00;99.90;;;;;;6153912;23;20033;-90
2021/07/21 02:08:59;;;;;;;8.32;6.80;;;20.00;99.90;;;;;;6143734;23;20001;-90
2021/07/21 02:11:26;;;;;;;8.45;6.38;;;20.00;99.90;;;;;;6152565;23;20012;-88
2021/07/21 02:13:55;;;;;;;8.25;6.40;;;20.10;99.90;;;;;;6153567;23;20001;-88
2021/07/21 02:16:21;;;;;;;7.93;6.55;;;20.10;99.90;;;;;;6177172;23;20001;-89
2021/07/21 02:18:47;;;;;;;7.95;6.55;;;20.10;99.90;;;;;;6133100;23;20009;-89
2021/07/21 02:21:14;;;;;;;7.93;6.00;;;20.10;99.90;;;;;;6166360;23;20012;-90
2021/07/21 02:23:40;;;;;;;6.25;5.18;;;20.10;99.90;;;;;;6132227;23;20006;-90
2021/07/21 02:26:06;;;;;;;5.60;4.35;;;20.10;99.90;;;;;;6133521;23;20476;-90
2021/07/21 02:28:33;;;;;;;6.25;4.35;;;20.20;99.90;;;;;;6132412;23;20460;-90
2021/07/21 02:31:04;;;;;;;4.82;3.80;;;20.20;99.90;;;;;;6158328;23;19994;-90
2021/07/21 02:33:43;;;;;;;5.47;4.10;;;20.20;99.90;;;;;;6132197;23;20040;-90
2021/07/21 02:36:09;;;;;;;5.55;4.20;;;20.20;99.90;;;;;;6132340;23;20017;-91
2021/07/21 02:38:35;;;;;;;5.22;3.92;;;20.30;99.90;;;;;;6132251;23;20001;-91
2021/07/21 02:41:01;;;;;;;6.25;4.57;;;20.30;99.90;;;;;;6132082;23;20024;-90
2021/07/21 02:43:27;;;;;;;5.22;3.92;;;20.20;99.90;;;;;;6132330;23;20002;-90
2021/07/21 02:45:53;;;;;;;5.07;4.22;;;20.20;99.90;;;;;;6132391;23;20509;-91
2021/07/21 02:48:18;;;;;;;4.47;3.70;;;20.20;99.90;;;;;;6132281;23;20008;-91
2021/07/21 02:50:49;;;;;;;6.13;4.03;;;20.20;99.90;;;;;;6132217;23;20008;-91
2021/07/21 02:53:22;;;;;;;4.80;3.92;;;20.20;99.90;;;;;;6132487;23;20043;-91
2021/07/21 02:55:50;;;;;;;4.72;3.80;;;20.30;99.90;;;;;;6133307;23;20010;-91
2021/07/21 02:58:25;;;;;;;4.15;3.72;;;20.30;99.90;;;;;;6133648;23;20008;-91
2021/07/21 03:00:55;;;;;;;5.47;4.03;;;20.30;99.90;;;;;;6134212;23;20009;-91
2021/07/21 03:03:21;;;;;;;4.25;3.83;;;20.30;99.90;;;;;;6132725;23;20041;-91
2021/07/21 03:05:49;;;;;;;5.13;4.15;;;20.30;99.90;;;;;;6131886;23;20032;-91
2021/07/21 03:08:18;;;;;;;5.13;4.22;;;20.40;99.90;;;;;;6157712;23;20414;-91
2021/07/21 03:10:44;;;;;;;6.32;4.40;;;20.40;99.90;;;;;;6132025;23;20028;-91
2021/07/21 03:13:16;;;;;;;5.25;4.10;;;20.40;99.90;;;;;;6131881;23;20035;-91
2021/07/21 03:15:45;;;;;;;6.30;4.25;;;20.40;99.90;;;;;;6131873;23;20009;-91
2021/07/21 03:18:17;;;;;;;3.88;3.47;;;20.40;99.90;;;;;;6131878;23;20009;-90
2021/07/21 03:20:43;;;;;;;5.10;3.75;;;20.40;99.90;;;;;;6131693;23;20400;-90
2021/07/21 03:23:11;;;;;;;4.25;3.67;;;20.50;99.90;;;;;;6131769;23;20089;-91
2021/07/21 03:25:38;;;;;;;3.92;3.30;;;20.50;99.90;;;;;;6131690;23;20016;-91
2021/07/21 03:28:06;;;;;;;5.28;4.10;;;20.50;99.90;;;;;;6131708;23;20001;-92
2021/07/21 03:30:34;;;;;;;4.25;3.75;;;20.50;99.90;;;;;;6131574;23;20002;-91
2021/07/21 03:33:01;;;;;;;5.15;3.25;;;20.60;99.90;;;;;;6131743;23;20024;-92
2021/07/21 03:35:30;;;;;;;4.05;3.08;;;20.60;99.90;;;;;;6131135;23;20037;-91
2021/07/21 03:37:57;;;;;;;3.80;3.17;;;20.60;99.90;;;;;;6131851;23;20394;-91
2021/07/21 03:40:27;;;;;;;4.20;2.85;;;20.60;99.90;;;;;;6131540;23;20028;-91
2021/07/21 03:42:55;;;;;;;4.75;3.58;;;20.60;99.90;;;;;;6131638;23;20016;-92
2021/07/21 03:45:24;;;;;;;3.65;3.20;;;20.70;99.90;;;;;;6131058;23;20001;-92
2021/07/21 03:47:50;;;;;;;4.05;3.13;;;20.70;99.90;;;;;;6131566;23;20149;-92
2021/07/21 03:50:21;;;;;;;4.53;3.40;;;20.70;99.90;;;;;;6131453;23;20061;-91
2021/07/21 03:52:48;;;;;;;3.78;3.28;;;20.80;99.90;;;;;;6131545;23;20002;-92
2021/07/21 03:55:16;;;;;;;3.72;3.10;;;20.80;99.90;;;;;;6131270;23;20024;-91
2021/07/21 03:57:45;;;;;;;3.13;2.65;;;20.80;99.90;;;;;;6142506;23;20005;-91
2021/07/21 04:00:15;;;;;;;3.78;3.00;;;20.90;99.90;;;;;;6149591;23;20005;-91
2021/07/21 04:02:42;;;;;;;3.78;3.30;;;20.90;99.90;;;;;;6153214;23;20013;-91
2021/07/21 04:05:13;;;;;;;4.80;2.97;;;21.00;99.90;;;;;;6155510;23;20000;-92
2021/07/21 04:07:39;;;;;;;4.90;3.60;;;21.00;99.90;;;;;;6151977;23;20092;-91
2021/07/21 04:10:07;;;;;;;4.95;3.85;;;21.10;99.90;;;;;;6141230;23;20002;-92
2021/07/21 04:12:35;;;;;;;3.83;3.30;;;21.10;99.90;;;;;;6133660;23;20012;-91
2021/07/21 04:15:02;;;;;;;3.63;3.30;;;21.10;99.90;;;;;;6133654;23;20013;-91
2021/07/21 04:17:32;;;;;;;3.63;3.30;;;21.20;99.90;;;;;;6132547;23;20005;-92
2021/07/21 04:20:00;;;;;;;3.38;3.08;;;21.30;99.90;;;;;;6157500;23;20009;-91
2021/07/21 04:22:27;;;;;;;3.90;3.30;;;21.30;99.90;;;;;;6131831;23;20052;-92
2021/07/21 04:24:56;;;;;;;3.75;3.00;;;21.40;99.90;;;;;;6132016;23;20532;-92
2021/07/21 04:27:23;;;;;;;4.45;3.35;;;21.50;99.90;;;;;;6132903;23;20381;-91
2021/07/21 04:29:50;;;;;;;4.45;3.75;;;21.60;99.90;;;;;;6132938;23;20006;-91
2021/07/21 04:32:21;;;;;;;4.50;3.53;;;21.70;99.90;;;;;;6132268;23;20028;-92
2021/07/21 04:34:48;;;;;;;5.03;3.92;;;21.80;99.90;;;;;;6132015;23;20097;-91
2021/07/21 04:37:15;;;;;;;4.60;3.58;;;21.90;99.90;;;;;;6131704;23;20036;-92
2021/07/21 04:39:42;;;;;;;3.88;3.33;;;22.00;99.90;;;;;;6131674;23;20005;-91
2021/07/21 04:42:08;;;;;;;4.07;3.67;;;22.10;99.90;;;;;;6131939;23;20008;-91
2021/07/21 04:44:37;;;;;;;4.65;4.20;;;22.10;99.90;;;;;;6131480;23;20006;-91
2021/07/21 04:47:03;;;;;;;4.68;4.13;;;22.10;99.90;;;;;;6131929;23;20144;-92
2021/07/21 04:49:30;;;;;;;4.10;3.65;;;22.10;99.90;;;;;;6131048;23;20001;-92
2021/07/21 04:52:01;;;;;;;4.50;3.72;;;22.20;99.90;;;;;;6157267;23;19997;-91
2021/07/21 04:54:28;;;;;;;4.95;4.15;;;22.20;99.90;;;;;;6130886;23;20006;-91
2021/07/21 04:56:54;;;;;;;4.55;3.88;;;22.30;99.90;;;;;;6131263;23;20440;-92
2021/07/21 04:59:20;;;;;;;4.22;3.83;;;22.30;99.80;;;;;;6131352;23;20036;-90
2021/07/21 05:01:48;;;;;;;4.55;4.07;;;22.40;99.80;;;;;;6130504;23;19998;-92
2021/07/21 05:04:14;;;;;;;7.03;4.15;;;22.50;99.50;;;;;;6130910;23;20010;-92
2021/07/21 05:06:40;;;;;;;4.70;4.05;;;22.50;99.50;;;;;;6131053;23;20366;-93
2021/07/21 05:09:07;;;;;;;5.38;4.88;;;22.50;99.20;;;;;;6131057;23;20002;-93
2021/07/21 05:11:33;;;;;;;6.32;5.20;;;22.60;98.70;;;;;;6131167;23;19997;-92
2021/07/21 05:13:58;;;;;;;5.78;4.65;;;22.60;98.50;;;;;;6130690;23;20024;-91
2021/07/21 05:16:24;;;;;;;7.40;5.18;;;22.50;98.50;;;;;;6131130;23;20088;-93
2021/07/21 05:18:50;;;;;;;6.80;5.15;;;22.50;98.10;;;;;;6130339;23;20008;-91
2021/07/21 05:21:16;;;;;;;5.93;5.30;;;22.40;97.90;;;;;;6130812;23;20020;-91
2021/07/21 05:23:42;;;;;;;5.95;5.00;;;22.30;98.00;;;;;;6130397;23;20095;-92
2021/07/21 05:26:09;;;;;;;7.38;6.35;;;22.30;98.10;;;;;;6130543;23;20005;-91
2021/07/21 05:28:37;;;;;;;8.77;5.95;;;22.30;98.10;;;;;;6130804;23;20005;-91
2021/07/21 05:31:03;;;;;;;7.28;6.15;;;22.30;97.60;;;;;;6130534;23;20006;-92
2021/07/21 05:33:29;;;;;;;8.40;7.32;;;22.30;97.60;;;;;;6130597;23;20020;-92
2021/07/21 05:35:55;;;;;;;8.80;6.85;;;22.30;96.70;;;;;;6130757;23;20414;-92
2021/07/21 05:38:21;;;;;;;7.93;5.70;;;22.30;96.70;;;;;;6130914;23;20057;-93
2021/07/21 05:40:47;;;;;;;7.50;6.70;;;22.40;96.90;;;;;;6132373;23;20028;-92
2021/07/21 05:43:13;;;;;;;8.15;6.28;;;22.50;97.00;;;;;;6139662;23;20073;-92
2021/07/21 05:45:39;;;;;;;7.32;6.22;;;22.60;96.80;;;;;;6131683;23;20005;-92
2021/07/21 05:48:05;;;;;;;6.75;6.05;;;22.70;96.40;;;;;;6131938;23;20329;-90
2021/07/21 05:50:31;;;;;;;7.82;6.40;;;22.80;96.40;;;;;;6130674;23;20027;-91
2021/07/21 05:52:58;;;;;;;8.38;7.10;;;23.00;96.30;;;;;;6139945;23;19997;-92
2021/07/21 05:55:24;;;;;;;9.25;8.07;;;23.30;95.90;;;;;;6179829;23;20006;-90
2021/07/21 05:57:50;;;;;;;11.45;8.18;;;23.40;94.60;;;;;;6156074;23;20066;-92
2021/07/21 06:00:16;;;;;;;10.80;9.13;;;23.40;93.80;;;;;;6154043;23;19998;-91
2021/07/21 06:02:42;;;;;;;12.23;9.18;;;23.40;93.40;;;;;;6152759;23;20000;-92
2021/07/21 06:05:10;;;;;;;11.73;8.73;;;23.40;93.20;;;;;;6144050;23;20027;-92
2021/07/21 06:07:36;;;;;;;11.93;10.10;;;23.30;93.00;;;;;;6133485;23;19998;-93
2021/07/21 06:10:04;;;;;;;11.20;8.45;;;23.30;93.10;;;;;;6141304;23;20017;-94
2021/07/21 06:12:32;;;;;;;11.43;8.80;;;23.30;93.50;;;;;;6138723;23;20013;-94
2021/07/21 06:14:59;;;;;;;10.13;8.20;;;23.40;93.80;;;;;;6136476;23;20493;-93
2021/07/21 06:17:25;;;;;;;12.02;9.38;;;23.70;94.00;;;;;;6133206;23;20010;-90
2021/07/21 06:20:04;;;;;;;12.57;9.55;;;24.00;93.10;;;;;;6159038;23;20361;-92
2021/07/21 06:22:33;;;;;;;12.00;8.13;;;24.20;92.40;;;;;;6132933;23;20020;-90
2021/07/21 06:25:00;;;;;;;9.50;8.50;;;24.50;92.50;;;;;;6131971;23;20088;-90
2021/07/21 06:27:26;;;;;;;12.45;10.80;;;24.80;91.70;;;;;;6158714;23;20409;-91
2021/07/21 06:29:52;;;;;;;14.35;11.05;;;25.00;90.30;;;;;;6131393;23;20013;-90
2021/07/21 06:32:18;;;;;;;12.80;10.38;;;25.00;89.00;;;;;;6131654;23;20017;-90
2021/07/21 06:34:44;;;;;;;14.45;11.15;;;24.90;89.40;;;;;;6126736;23;20045;-90
2021/07/21 06:37:10;;;;;;;11.80;9.82;;;24.80;89.10;;;;;;6128552;23;20260;-91
2021/07/21 06:39:35;;;;;;;12.32;9.35;;;24.70;90.00;;;;;;6151076;23;20009;-92
2021/07/21 06:42:01;;;;;;;10.52;9.25;;;24.70;90.20;;;;;;6151668;23;19998;-92
2021/07/21 06:44:27;;;;;;;11.57;9.45;;;24.90;90.30;;;;;;6151799;23;20010;-92
2021/07/21 06:46:52;;;;;;;12.25;9.77;;;24.90;90.10;;;;;;6151728;23;20403;-91
2021/07/21 06:49:21;;;;;;;11.48;9.02;;;24.90;89.10;;;;;;6128913;23;19998;-91
2021/07/21 06:51:47;;;;;;;10.00;8.77;;;24.90;90.00;;;;;;6152548;23;20480;-91
2021/07/21 06:54:13;;;;;;;10.13;8.70;;;25.00;90.20;;;;;;6154980;23;20037;-92
2021/07/21 06:56:38;;;;;;;12.13;9.65;;;25.20;90.30;;;;;;6151485;23;20046;-92
2021/07/21 06:59:04;;;;;;;9.85;8.07;;;25.30;88.20;;;;;;6151531;23;20100;-92
2021/07/21 07:01:30;;;;;;;9.95;8.95;;;25.40;88.20;;;;;;6151522;23;20006;-91
2021/07/21 07:03:55;;;;;;;10.32;8.60;;;25.40;87.60;;;;;;6153071;23;20006;-92
2021/07/21 07:06:21;;;;;;;9.35;8.20;;;25.30;87.50;;;;;;6152985;23;20002;-92
2021/07/21 07:08:47;;;;;;;10.32;8.93;;;25.30;88.10;;;;;;6151810;23;20008;-92
2021/07/21 07:11:13;;;;;;;13.70;8.45;;;25.30;87.90;;;;;;6152040;23;20438;-92
2021/07/21 07:13:39;;;;;;;10.65;9.27;;;25.30;86.90;;;;;;6152694;23;20002;-92
2021/07/21 07:16:05;;;;;;;9.45;7.78;;;25.30;86.90;;;;;;6154392;23;20063;-91
2021/07/21 07:18:31;;;;;;;10.63;8.30;;;25.30;87.30;;;;;;6153679;23;20375;-91
2021/07/21 07:20:57;;;;;;;10.85;8.48;;;25.40;87.70;;;;;;6155461;23;20006;-91
2021/07/21 07:23:23;;;;;;;9.82;8.00;;;25.50;87.30;;;;;;6131139;23;20140;-92
2021/07/21 07:25:49;;;;;;;10.73;9.45;;;25.60;86.80;;;;;;6155268;23;20006;-91
2021/07/21 07:28:15;;;;;;;10.45;9.35;;;25.70;86.10;;;;;;6150897;23;20022;-91
2021/07/21 07:30:41;;;;;;;11.60;8.57;;;25.70;85.40;;;;;;6154370;23;20490;-92
2021/07/21 07:33:07;;;;;;;10.82;9.10;;;25.70;85.70;;;;;;6150611;23;20006;-92
2021/07/21 07:35:34;;;;;;;10.13;7.90;;;25.70;85.30;;;;;;6155932;23;20484;-92
2021/07/21 07:38:00;;;;;;;10.40;9.40;;;25.80;85.60;;;;;;6157235;23;20029;-93
2021/07/21 07:40:26;;;;;;;8.75;7.78;;;25.90;84.80;;;;;;6131525;23;20001;-91
2021/07/21 07:42:52;;;;;;;10.82;9.48;;;26.10;85.00;;;;;;6132215;23;20004;-92
2021/07/21 07:45:18;;;;;;;10.55;9.45;;;26.30;84.30;;;;;;6131205;23;20016;-92
2021/07/21 07:47:44;;;;;;;11.32;9.15;;;26.30;83.30;;;;;;6132198;23;19997;-92
2021/07/21 07:50:11;;;;;;;11.20;9.65;;;26.30;83.60;;;;;;6131770;23;20005;-91
2021/07/21 07:52:38;;;;;;;10.57;9.48;;;26.30;82.30;;;;;;6131779;23;20005;-92
2021/07/21 07:55:05;;;;;;;14.63;9.35;;;26.30;81.50;;;;;;6138696;23;20056;-92
2021/07/21 07:57:32;;;;;;;11.15;9.90;;;26.20;81.90;;;;;;6151811;23;20374;-91
2021/07/21 07:59:57;;;;;;;14.15;9.68;;;26.10;81.00;;;;;;6149200;23;19997;-92
2021/07/21 08:02:23;;;;;;;11.95;10.15;;;26.00;81.60;;;;;;6177744;23;20058;-91
2021/07/21 08:04:49;;;;;;;10.45;9.35;;;25.90;81.40;;;;;;6148060;23;20036;-91
2021/07/21 08:07:15;;;;;;;10.88;9.60;;;25.90;81.70;;;;;;6136405;23;20012;-92
2021/07/21 08:09:40;;;;;;;10.80;8.38;;;26.00;81.50;;;;;;6132642;23;19998;-92
2021/07/21 08:12:06;;;;;;;12.25;10.50;;;26.10;81.60;;;;;;6131884;23;20009;-92
2021/07/21 08:14:32;;;;;;;12.32;11.02;;;26.10;79.70;;;;;;6131700;23;20009;-92
2021/07/21 08:16:58;;;;;;;12.00;10.48;;;26.10;80.10;;;;;;6131837;23;20418;-91
2021/07/21 08:19:24;;;;;;;11.70;10.35;;;26.10;79.50;;;;;;6130744;23;20020;-91
2021/07/21 08:21:54;;;;;;;11.43;10.18;;;26.00;79.20;;;;;;6131176;23;20104;-93
2021/07/21 08:24:20;;;;;;;10.98;9.18;;;26.00;80.10;;;;;;6131345;23;20016;-90
2021/07/21 08:26:46;;;;;;;15.00;12.73;;;25.90;80.10;;;;;;6130933;23;20005;-91
2021/07/21 08:29:12;;;;;;;14.98;11.65;;;25.80;79.20;;;;;;6131725;23;20009;-92
2021/07/21 08:31:38;;;;;;;12.25;10.52;;;25.70;79.90;;;;;;6131190;23;20100;-91
2021/07/21 08:34:05;;;;;;;11.88;10.23;;;25.70;80.50;;;;;;6131633;23;20430;-91
2021/07/21 08:36:35;;;;;;;13.60;12.20;;;25.80;80.60;;;;;;6157051;23;20276;-91
2021/07/21 08:39:02;;;;;;;13.73;11.55;;;25.90;79.90;;;;;;6130826;23;20321;-91
2021/07/21 08:41:27;;;;;;;14.65;12.07;;;25.80;80.30;;;;;;6130844;23;20325;-90
2021/07/21 08:43:56;;;;;;;13.85;10.73;;;25.80;80.80;;;;;;6130687;23;20006;-91
2021/07/21 08:46:23;;;;;;;12.10;10.80;;;25.80;81.10;;;;;;6130308;23;20028;-91
2021/07/21 08:48:52;;;;;;;14.75;11.30;;;25.90;81.40;;;;;;6130549;23;20012;-91
2021/07/21 08:51:21;;;;;;;13.38;11.30;;;26.10;80.60;;;;;;6130802;23;20045;-91
2021/07/21 08:53:49;;;;;;;13.18;11.77;;;26.10;79.80;;;;;;6156026;23;20002;-90
2021/07/21 08:56:16;;;;;;;12.80;11.40;;;26.00;79.20;;;;;;6130067;23;20017;-92
2021/07/21 08:58:44;;;;;;;12.75;11.35;;;26.00;79.00;;;;;;6130310;23;20002;-91
2021/07/21 09:01:13;;;;;;;10.82;9.73;;;25.90;80.00;;;;;;6129967;23;19998;-91
2021/07/21 09:03:41;;;;;;;13.90;10.75;;;25.90;80.20;;;;;;6128603;23;20012;-91
2021/07/21 09:06:06;;;;;;;11.13;9.40;;;26.10;79.70;;;;;;6130090;23;20009;-91
2021/07/21 09:08:34;;;;;;;10.93;8.90;;;26.30;79.30;;;;;;6155725;23;19993;-90
2021/07/21 09:11:01;;;;;;;11.95;10.15;;;26.50;78.50;;;;;;6130487;23;19998;-92
2021/07/21 09:13:27;;;;;;;11.48;10.13;;;26.70;76.70;;;;;;6131009;23;20072;-91
2021/07/21 09:15:53;;;;;;;11.13;9.95;;;26.90;75.80;;;;;;6129926;23;20033;-92
2021/07/21 09:18:23;;;;;;;13.82;10.80;;;27.00;76.10;;;;;;6126993;23;20002;-92
2021/07/21 09:21:17;;;;;;;11.35;9.75;;;27.00;76.00;;;;;;6129774;23;20080;-91
2021/07/21 09:23:48;;;;;;;14.00;12.02;;;27.10;75.20;;;;;;6157950;23;20073;-91
2021/07/21 09:26:40;;;;;;;12.32;10.68;;;27.20;74.90;;;;;;6133153;23;20010;-91
2021/07/21 09:29:06;;;;;;;12.23;10.52;;;27.20;75.30;;;;;;6131737;23;20001;-90
2021/07/21 09:31:43;;;;;;;15.63;11.98;;;27.30;74.80;;;;;;6106902;23;20074;-92
2021/07/21 09:34:29;;;;;;;15.25;13.00;;;27.30;73.60;;;;;;6129258;23;20022;-93
2021/07/21 09:37:12;;;;;;;12.07;10.65;;;27.20;72.80;;;;;;6129446;23;20006;-92
2021/07/21 09:39:42;;;;;;;14.68;11.18;;;27.00;73.70;;;;;;6130019;23;20083;-92
2021/07/21 09:42:14;;;;;;;12.27;9.93;;;26.80;74.60;;;;;;6131229;23;19997;-93
2021/07/21 09:44:50;;;;;;;13.57;11.75;;;26.70;75.30;;;;;;6134899;23;20001;-92
2021/07/21 09:47:56;;;;;;;12.48;10.13;;;26.50;75.30;;;;;;6125351;23;20020;-95
2021/07/21 09:51:26;;;;;;;13.63;9.75;;;26.20;76.20;;;;;;6128107;23;20001;-96
2021/07/21 10:06:50;;;;;;;11.77;8.70;;;25.40;77.90;;;;;;6240729;23;20035;-90
2021/07/21 10:09:27;;;;;;;11.68;9.90;;;25.40;78.20;;;;;;6200043;23;20313;-91
2021/07/21 10:12:03;;;;;;;;;;;;;;;;;;;;;
2021/07/21 10:18:27;;;;;;;;;;;;;;;;;;;;;
2021/07/21 10:21:13;;;;;;;10.82;9.02;;;25.00;79.90;;;;;;6213987;23;20088;-92
2021/07/21 10:23:42;;;;;;;11.85;9.02;;;25.00;80.20;;;;;;6184552;23;20409;-91
2021/07/21 10:26:14;;;;;;;12.65;9.52;;;25.00;80.30;;;;;;6168334;23;20143;-91
2021/07/21 10:28:50;;;;;;;10.35;9.15;;;25.00;80.50;;;;;;6202555;23;20024;-92
2021/07/21 10:32:03;;;;;;;;;;;;;;;;;;;;;
2021/07/21 10:38:02;;;;;;;10.65;8.60;;;25.20;80.60;;;;;;6098252;23;20138;-93
2021/07/21 10:40:32;;;;;;;10.25;8.98;;;25.20;80.80;;;;;;6075376;23;20043;-93
2021/07/21 10:43:16;;;;;;;12.18;8.70;;;25.30;80.60;;;;;;6129712;23;20000;-93
2021/07/21 10:45:43;;;;;;;13.43;10.55;;;25.40;80.30;;;;;;6193355;23;20015;-93
2021/07/21 10:48:35;;;;;;;12.52;9.10;;;25.40;80.10;;;;;;6193602;23;20005;-93
2021/07/21 11:00:31;;;;;;;11.57;8.77;;;25.30;80.90;;;;;;6218462;23;20062;-93
2021/07/21 11:03:24;;;;;;;10.38;8.77;;;25.30;81.00;;;;;;6156625;23;20018;-93
2021/07/21 11:06:15;;;;;;;10.23;8.88;;;25.30;79.90;;;;;;6155845;23;20010;-92
2021/07/21 11:09:15;;;;;;;10.93;8.50;;;25.20;79.80;;;;;;6156382;23;20005;-91
2021/07/21 11:11:44;;;;;;;12.13;9.43;;;25.20;80.10;;;;;;6155328;23;20028;-92
2021/07/21 11:14:22;;;;;;;9.27;7.53;;;25.10;80.30;;;;;;6155720;23;20008;-92
2021/07/21 11:17:26;;;;;;;9.93;8.50;;;25.20;80.40;;;;;;6155719;23;20322;-92
2021/07/21 11:20:09;;;;;;;10.15;7.88;;;25.30;79.90;;;;;;6155968;23;20098;-92
2021/07/21 11:23:00;;;;;;;9.63;8.65;;;25.30;80.30;;;;;;6159693;23;19998;-91
2021/07/21 11:25:35;;;;;;;10.50;9.15;;;25.40;79.30;;;;;;6155211;23;20080;-93
2021/07/21 11:28:04;;;;;;;11.25;8.73;;;25.40;79.30;;;;;;6154200;23;20515;-91
2021/07/21 11:31:03;;;;;;;11.60;8.70;;;25.40;79.00;;;;;;6155672;23;20484;-90
2021/07/21 11:34:01;;;;;;;13.60;9.70;;;25.50;78.70;;;;;;6155152;23;19997;-91
2021/07/21 11:37:23;;;;;;;10.32;9.05;;;25.50;78.70;;;;;;6156247;23;20016;-91
2021/07/21 11:40:16;;;;;;;9.35;8.05;;;25.60;77.90;;;;;;6151711;23;20016;-92
2021/07/21 11:43:11;;;;;;;9.95;8.27;;;25.50;77.60;;;;;;6041648;23;20041;-92
2021/07/21 11:49:38;;;;;;;8.98;8.07;;;25.60;78.00;;;;;;6050234;23;20134;-92
2021/07/21 11:52:28;;;;;;;12.02;7.60;;;25.70;78.20;;;;;;6109674;23;20097;-92
2021/07/21 11:54:54;;;;;;;8.93;7.55;;;25.90;78.30;;;;;;6155325;23;20012;-91
2021/07/21 11:57:56;;;;;;;;;;;;;;;;;;;;;
2021/07/21 12:00:54;;;;;;;10.52;7.45;;;26.10;77.40;;;;;;6166052;23;20037;-92
2021/07/21 12:03:56;;;;;;;9.18;7.32;;;26.20;76.20;;;;;;6165383;23;20017;-92
2021/07/21 12:06:52;;;;;;;10.23;8.15;;;26.30;75.70;;;;;;6133420;23;20075;-91
2021/07/21 12:09:48;;;;;;;9.35;7.80;;;26.40;74.40;;;;;;6169283;23;20016;-93
2021/07/21 12:12:42;;;;;;;8.85;7.15;;;26.40;74.90;;;;;;6163971;23;20044;-92
2021/07/21 12:15:17;;;;;;;10.45;7.07;;;26.30;74.50;;;;;;6165257;23;20001;-90
2021/07/21 12:17:46;;;;;;;10.15;7.32;;;26.20;74.70;;;;;;6156829;23;20024;-90
2021/07/21 12:20:25;;;;;;;9.75;7.43;;;26.10;74.10;;;;;;6163055;23;20458;-90
2021/07/21 12:22:58;;;;;;;8.23;6.95;;;26.00;74.70;;;;;;6161769;23;20005;-91
2021/07/21 12:25:55;;;;;;;7.67;6.77;;;26.00;74.80;;;;;;6163017;23;20012;-91
2021/07/21 12:28:48;;;;;;;7.35;6.32;;;25.90;74.20;;;;;;6162483;23;20239;-91
2021/07/21 12:34:36;;;;;;;8.95;6.60;;;25.90;75.50;;;;;;6175007;23;20342;-91
2021/07/21 12:37:36;;;;;;;8.07;6.78;;;25.90;75.50;;;;;;6161321;23;20009;-91
2021/07/21 12:40:08;;;;;;;8.48;5.82;;;25.80;75.20;;;;;;6151793;23;20012;-91
2021/07/21 12:42:43;;;;;;;7.28;6.28;;;25.70;74.90;;;;;;6160974;23;20005;-91
2021/07/21 12:45:16;;;;;;;7.75;6.60;;;25.70;75.40;;;;;;6161137;23;20059;-92
2021/07/21 12:47:45;;;;;;;;;;;25.60;76.00;;;;;;6162194;23;20005;-91
2021/07/21 12:50:22;;;;;;;8.13;6.57;;;25.40;76.80;;;;;;6161401;23;19900;-92
2021/07/21 12:53:01;;;;;;;10.05;6.88;;;25.30;77.10;;;;;;6161261;23;20028;-91
2021/07/21 12:55:35;;;;;;;8.70;6.30;;;25.30;77.70;;;;;;6160376;23;20449;-92
2021/07/21 12:58:17;;;;;;;8.25;6.53;;;25.20;78.30;;;;;;6161676;23;20005;-91
2021/07/21 13:00:52;;;;;;;7.60;5.47;;;25.10;78.60;;;;;;6160706;23;20547;-92
2021/07/21 13:03:23;;;;;;;8.13;6.53;;;25.00;78.60;;;;;;6160288;23;20002;-91
2021/07/21 13:05:52;;;;;;;9.77;7.32;;;25.00;78.70;;;;;;6162237;23;20013;-92
2021/07/21 13:08:20;;;;;;;9.95;7.40;;;25.00;79.10;;;;;;6160307;23;20024;-93
2021/07/21 13:10:50;;;;;;;10.57;7.07;;;24.90;79.00;;;;;;6158875;23;20422;-94
2021/07/21 13:13:54;;;;;;;11.23;8.80;;;24.80;79.10;;;;;;6161763;23;20024;-92
2021/07/21 13:16:30;;;;;;;8.18;7.15;;;24.80;79.40;;;;;;6159408;23;20195;-91
2021/07/21 13:19:18;;;;;;;12.75;7.53;;;24.70;79.90;;;;;;6161767;23;20001;-91
2021/07/21 13:21:50;;;;;;;9.57;7.07;;;24.70;80.30;;;;;;6162089;23;20001;-91
2021/07/21 13:24:25;;;;;;;9.85;7.03;;;24.70;80.90;;;;;;6161707;23;20096;-92
2021/07/21 13:27:01;;;;;;;8.70;7.03;;;24.60;81.30;;;;;;6162695;23;20005;-91
2021/07/21 13:29:29;;;;;;;9.57;7.05;;;24.60;80.90;;;;;;6163396;23;20001;-91
2021/07/21 13:31:58;;;;;;;9.07;7.78;;;24.50;80.80;;;;;;6162032;23;20048;-90
2021/07/21 13:34:28;;;;;;;9.00;7.38;;;24.50;80.90;;;;;;6163476;23;20087;-91
2021/07/21 13:37:10;;;;;;;9.77;7.97;;;24.50;81.00;;;;;;6162344;23;20009;-91
2021/07/21 13:39:44;;;;;;;9.73;8.20;;;24.40;81.10;;;;;;6163892;23;20005;-91
2021/07/21 13:42:20;;;;;;;11.90;8.27;;;24.40;81.10;;;;;;6162084;23;20012;-92
2021/07/21 13:45:03;;;;;;;11.15;8.93;;;24.40;81.20;;;;;;6163241;23;20004;-92
2021/07/21 13:47:33;;;;;;;11.02;9.35;;;24.30;81.80;;;;;;6163848;23;20001;-91